Venice — V7GA6 — position and weather

sailwx.info

Track history (hours):
 
Tides and Currents Weather Stations Pressure Air Temp Water Temp Dewpoint Dewpoint Depression Visibility Wind Speed Wind Dir Waves Ship Positions

Venice

Last reported at 2014-Aug-21 08:33 UTC. Time now 2014-Aug-21 20:02 UTC.
Position N 26°32' W 078°51'.

Length 240 m; draft 7.6 m.

Type: Tanker. MMSI: 538002060.

Date/timePositionNaut miles runAvg speedWind from/ knotsBaromVisibWave heightAir tempDewpointWater temp
2014-Aug-21 08:33N 26°32' W 078°51'3811.6
2014-Aug-21 05:16N 27°03' W 079°16'1010.8
2014-Aug-21 04:20N 27°12' W 079°19'2110.2
2014-Aug-21 02:19N 27°32' W 079°27'  
2014-Aug-18 02:10N 32°04' W 080°57'5 8.7
2014-Aug-18 01:33N 32°05' W 081°04'3 2.7
2014-Aug-18 00:33N 32°06' W 081°07'1 0.0
2014-Aug-17 10:32N 32°06' W 081°06'5 5.0
2014-Aug-17 09:31N 32°06' W 081°00'22711.4
2014-Aug-16 13:33N 33°38' W 076°53'1514.3
2014-Aug-16 12:32N 33°48' W 076°40'1614.1
2014-Aug-16 11:24N 33°58' W 076°25'2612.9
2014-Aug-16 09:25N 34°14' W 076°00'27211.8
2014-Aug-15 10:22N 38°30' W 074°07'1113.9
2014-Aug-15 09:33N 38°41' W 074°05'1414.1
2014-Aug-15 08:33N 38°55' W 074°01'1413.9
2014-Aug-15 07:32N 39°09' W 073°58'1413.8
2014-Aug-15 06:33N 39°22' W 073°55'1313.4
2014-Aug-15 05:33N 39°35' W 073°52'1313.1
2014-Aug-15 04:33N 39°48' W 073°51'1313.0
2014-Aug-15 03:33N 40°01' W 073°51'1312.7
2014-Aug-15 02:33N 40°14' W 073°50'1211.7
2014-Aug-15 01:32N 40°26' W 073°49'1010.0
2014-Aug-15 00:33N 40°31' W 073°60'7 6.8
2014-Aug-14 23:32N 40°37' W 074°04'0 0.0
2014-Aug-14 22:29N 40°37' W 074°04'0 0.0
2014-Aug-14 21:32N 40°37' W 074°04'0 0.0
2014-Aug-14 20:32N 40°37' W 074°04'0 0.0
2014-Aug-14 19:32N 40°37' W 074°04'0 0.0
2014-Aug-14 18:32N 40°37' W 074°04'0 0.2
2014-Aug-14 17:32N 40°38' W 074°03'0 0.2
2014-Aug-14 16:32N 40°38' W 074°04'0 0.0
2014-Aug-14 15:32N 40°38' W 074°04'0 0.0
2014-Aug-14 14:32N 40°38' W 074°04'0 0.1
2014-Aug-14 13:29N 40°38' W 074°04'0 0.2
2014-Aug-14 12:32N 40°38' W 074°03'0 0.1
2014-Aug-14 11:32N 40°38' W 074°03'0 0.1
2014-Aug-14 10:32N 40°37' W 074°04'0 0.0
2014-Aug-14 09:32N 40°37' W 074°04'0 0.0
2014-Aug-14 08:32N 40°37' W 074°03'0 0.0
2014-Aug-14 07:32N 40°37' W 074°03'0 0.0
2014-Aug-14 06:32N 40°37' W 074°03'0 0.1
2014-Aug-14 05:32N 40°38' W 074°03'0 0.2
2014-Aug-14 04:33N 40°38' W 074°04'2 2.2
2014-Aug-14 03:34N 40°39' W 074°06'0 0.0
2014-Aug-13 10:10N 40°39' W 074°06'0 0.0
2014-Aug-13 09:31N 40°39' W 074°06'1 0.7
2014-Aug-13 08:32N 40°39' W 074°05'0 0.0
2014-Aug-12 01:28N 40°39' W 074°05'2 2.0
2014-Aug-12 00:34N 40°38' W 074°03'7 7.1
2014-Aug-11 23:34N 40°31' W 074°00'1110.6
2014-Aug-11 22:34N 40°26' W 073°48'7 6.8
2014-Aug-11 21:34N 40°28' W 073°39'3 2.6
2014-Aug-11 20:30N 40°29' W 073°36'0 0.1
2014-Aug-11 19:30N 40°29' W 073°36'0 0.0
2014-Aug-11 18:33N 40°29' W 073°36'0 0.0
2014-Aug-11 17:30N 40°29' W 073°36'6 6.1
2014-Aug-11 16:33N 40°29' W 073°28'1211.8
2014-Aug-11 15:33N 40°29' W 073°13'1312.5
2014-Aug-11 14:33N 40°30' W 072°56'1312.6
2014-Aug-11 13:33N 40°30' W 072°40'1312.6
2014-Aug-11 12:33N 40°31' W 072°23'1312.5
2014-Aug-11 11:33N 40°31' W 072°07'1312.8
2014-Aug-11 10:33N 40°31' W 071°50'1313.2
2014-Aug-11 09:33N 40°32' W 071°33'1313.2
2014-Aug-11 08:33N 40°32' W 071°15'  
Track history (hours):
 
Tides and Currents Weather Stations Pressure Air Temp Water Temp Dewpoint Dewpoint Depression Visibility Wind Speed Wind Dir Waves Ship Positions

Venice

Last reported at 2014-Aug-21 08:33 UTC. Time now 2014-Aug-21 20:02 UTC.
Position N 26°32' W 078°51'.

Length 240 m; draft 7.6 m.

Type: Tanker. MMSI: 538002060.

Date/timePositionNaut miles runAvg speedWind from/ knotsBaromVisibWave heightAir tempDewpointWater temp
2014-Aug-21 08:33N 26°32' W 078°51'3811.6
2014-Aug-21 05:16N 27°03' W 079°16'1010.8
2014-Aug-21 04:20N 27°12' W 079°19'2110.2
2014-Aug-21 02:19N 27°32' W 079°27'  
2014-Aug-18 02:10N 32°04' W 080°57'5 8.7
2014-Aug-18 01:33N 32°05' W 081°04'3 2.7
2014-Aug-18 00:33N 32°06' W 081°07'1 0.0
2014-Aug-17 10:32N 32°06' W 081°06'5 5.0
2014-Aug-17 09:31N 32°06' W 081°00'22711.4
2014-Aug-16 13:33N 33°38' W 076°53'1514.3
2014-Aug-16 12:32N 33°48' W 076°40'1614.1
2014-Aug-16 11:24N 33°58' W 076°25'2612.9
2014-Aug-16 09:25N 34°14' W 076°00'27211.8
2014-Aug-15 10:22N 38°30' W 074°07'1113.9
2014-Aug-15 09:33N 38°41' W 074°05'1414.1
2014-Aug-15 08:33N 38°55' W 074°01'1413.9
2014-Aug-15 07:32N 39°09' W 073°58'1413.8
2014-Aug-15 06:33N 39°22' W 073°55'1313.4
2014-Aug-15 05:33N 39°35' W 073°52'1313.1
2014-Aug-15 04:33N 39°48' W 073°51'1313.0
2014-Aug-15 03:33N 40°01' W 073°51'1312.7
2014-Aug-15 02:33N 40°14' W 073°50'1211.7
2014-Aug-15 01:32N 40°26' W 073°49'1010.0
2014-Aug-15 00:33N 40°31' W 073°60'7 6.8
2014-Aug-14 23:32N 40°37' W 074°04'0 0.0
2014-Aug-14 22:29N 40°37' W 074°04'0 0.0
2014-Aug-14 21:32N 40°37' W 074°04'0 0.0
2014-Aug-14 20:32N 40°37' W 074°04'0 0.0
2014-Aug-14 19:32N 40°37' W 074°04'0 0.0
2014-Aug-14 18:32N 40°37' W 074°04'0 0.2
2014-Aug-14 17:32N 40°38' W 074°03'0 0.2
2014-Aug-14 16:32N 40°38' W 074°04'0 0.0
2014-Aug-14 15:32N 40°38' W 074°04'0 0.0
2014-Aug-14 14:32N 40°38' W 074°04'0 0.1
2014-Aug-14 13:29N 40°38' W 074°04'0 0.2
2014-Aug-14 12:32N 40°38' W 074°03'0 0.1
2014-Aug-14 11:32N 40°38' W 074°03'0 0.1
2014-Aug-14 10:32N 40°37' W 074°04'0 0.0
2014-Aug-14 09:32N 40°37' W 074°04'0 0.0
2014-Aug-14 08:32N 40°37' W 074°03'0 0.0
2014-Aug-14 07:32N 40°37' W 074°03'0 0.0
2014-Aug-14 06:32N 40°37' W 074°03'0 0.1
2014-Aug-14 05:32N 40°38' W 074°03'0 0.2
2014-Aug-14 04:33N 40°38' W 074°04'2 2.2
2014-Aug-14 03:34N 40°39' W 074°06'0 0.0
2014-Aug-13 10:10N 40°39' W 074°06'0 0.0
2014-Aug-13 09:31N 40°39' W 074°06'1 0.7
2014-Aug-13 08:32N 40°39' W 074°05'0 0.0
2014-Aug-12 01:28N 40°39' W 074°05'2 2.0
2014-Aug-12 00:34N 40°38' W 074°03'7 7.1
2014-Aug-11 23:34N 40°31' W 074°00'1110.6
2014-Aug-11 22:34N 40°26' W 073°48'7 6.8
2014-Aug-11 21:34N 40°28' W 073°39'3 2.6
2014-Aug-11 20:30N 40°29' W 073°36'0 0.1
2014-Aug-11 19:30N 40°29' W 073°36'0 0.0
2014-Aug-11 18:33N 40°29' W 073°36'0 0.0
2014-Aug-11 17:30N 40°29' W 073°36'6 6.1
2014-Aug-11 16:33N 40°29' W 073°28'1211.8
2014-Aug-11 15:33N 40°29' W 073°13'1312.5
2014-Aug-11 14:33N 40°30' W 072°56'1312.6
2014-Aug-11 13:33N 40°30' W 072°40'1312.6
2014-Aug-11 12:33N 40°31' W 072°23'1312.5
2014-Aug-11 11:33N 40°31' W 072°07'1312.8
2014-Aug-11 10:33N 40°31' W 071°50'1313.2
2014-Aug-11 09:33N 40°32' W 071°33'1313.2
2014-Aug-11 08:33N 40°32' W 071°15'  

Dump ship's entire track history